createdAt,value
2018-11-06T00:00:59.570Z,8.48
2018-11-06T00:02:00.009Z,8.48
2018-11-06T00:02:59.753Z,8.49
2018-11-06T00:03:59.541Z,8.48
2018-11-06T00:04:59.541Z,8.48
2018-11-06T00:05:59.620Z,8.48
2018-11-06T00:06:59.602Z,8.45
2018-11-06T00:08:01.923Z,8.46
2018-11-06T00:09:00.831Z,8.45
2018-11-06T00:09:59.596Z,8.45
2018-11-06T00:10:59.617Z,8.44
2018-11-06T00:11:59.566Z,8.44
2018-11-06T00:12:59.804Z,8.46
2018-11-06T00:13:59.604Z,8.39
2018-11-06T00:14:59.542Z,8.4
2018-11-06T00:15:59.641Z,8.4
2018-11-06T00:16:59.617Z,8.4
2018-11-06T00:17:59.655Z,8.37
2018-11-06T00:18:59.881Z,8.39
2018-11-06T00:20:01.750Z,8.36
2018-11-06T00:21:00.706Z,8.35
2018-11-06T00:21:59.565Z,8.36
2018-11-06T00:23:00.646Z,8.37
2018-11-06T00:23:59.634Z,8.37
2018-11-06T00:24:59.728Z,8.32
2018-11-06T00:25:59.657Z,8.35
2018-11-06T00:26:59.531Z,8.33
2018-11-06T00:27:59.522Z,8.3
2018-11-06T00:28:59.722Z,8.25
2018-11-06T00:30:01.741Z,8.29
2018-11-06T00:30:59.659Z,8.29
2018-11-06T00:31:59.606Z,8.3
2018-11-06T00:32:59.707Z,8.3
2018-11-06T00:34:01.267Z,8.32
2018-11-06T00:34:59.637Z,8.32
2018-11-06T00:35:59.578Z,8.33
2018-11-06T00:36:59.704Z,8.32
2018-11-06T00:37:59.759Z,8.36
2018-11-06T00:39:00.790Z,8.34
2018-11-06T00:39:59.548Z,8.34
2018-11-06T00:40:59.939Z,8.33
2018-11-06T00:41:59.739Z,8.36
2018-11-06T00:42:59.626Z,8.35
2018-11-06T00:43:59.567Z,8.35
2018-11-06T00:44:59.714Z,8.35
2018-11-06T00:45:59.611Z,8.35
2018-11-06T00:46:59.574Z,8.35
2018-11-06T00:48:01.196Z,8.34
2018-11-06T00:48:59.660Z,8.37
2018-11-06T00:49:59.742Z,8.36
2018-11-06T00:50:59.687Z,8.36
2018-11-06T00:51:59.770Z,8.37
2018-11-06T00:52:59.636Z,8.38
2018-11-06T00:54:00.513Z,8.38
2018-11-06T00:54:59.666Z,8.41
2018-11-06T00:55:59.557Z,8.38
2018-11-06T00:56:59.693Z,8.39
2018-11-06T00:57:59.722Z,8.38
2018-11-06T00:58:59.650Z,8.36
2018-11-06T00:59:59.538Z,8.28
2018-11-06T01:00:59.468Z,8.17
2018-11-06T01:01:59.670Z,8.05
2018-11-06T01:02:59.628Z,8.04
2018-11-06T01:03:59.658Z,8.05
2018-11-06T01:04:59.581Z,8.02
2018-11-06T01:05:59.489Z,8.07
2018-11-06T01:06:59.626Z,8.09
2018-11-06T01:07:59.667Z,8.08
2018-11-06T01:08:59.519Z,8.11
2018-11-06T01:10:00.247Z,8.12
2018-11-06T01:10:59.503Z,7.92
2018-11-06T01:11:59.510Z,7.92
2018-11-06T01:12:59.566Z,7.93
2018-11-06T01:13:59.639Z,7.94
2018-11-06T01:14:59.618Z,7.95
2018-11-06T01:15:59.609Z,7.88
2018-11-06T01:16:59.543Z,7.88
2018-11-06T01:17:59.519Z,7.69
2018-11-06T01:18:59.463Z,7.54
2018-11-06T01:19:59.580Z,7.42
2018-11-06T01:20:59.695Z,7.5
2018-11-06T01:21:59.778Z,7.43
2018-11-06T01:22:59.546Z,7.39
2018-11-06T01:23:59.535Z,7.42
2018-11-06T01:24:59.641Z,7.42
2018-11-06T01:25:59.541Z,7.37
2018-11-06T01:26:59.952Z,7.32
2018-11-06T01:27:59.930Z,7.25
2018-11-06T01:28:59.517Z,7.26
2018-11-06T01:29:59.586Z,7.31
2018-11-06T01:30:59.467Z,7.37
2018-11-06T01:31:59.623Z,7.4
2018-11-06T01:32:59.447Z,7.46
2018-11-06T01:34:00.022Z,7.48
2018-11-06T01:34:59.513Z,7.53
2018-11-06T01:35:59.468Z,7.53
2018-11-06T01:36:59.416Z,7.59
2018-11-06T01:37:59.487Z,7.62
2018-11-06T01:38:59.534Z,7.66
2018-11-06T01:40:00.133Z,7.67
2018-11-06T01:40:59.418Z,7.68
2018-11-06T01:41:59.487Z,7.68
2018-11-06T01:42:59.435Z,7.71
2018-11-06T01:43:59.410Z,7.74
2018-11-06T01:44:59.498Z,7.77
2018-11-06T01:45:59.473Z,7.78
2018-11-06T01:46:59.403Z,7.78
2018-11-06T01:47:59.481Z,7.79
2018-11-06T01:48:59.416Z,7.8
2018-11-06T01:49:59.482Z,7.85
2018-11-06T01:50:59.495Z,7.86
2018-11-06T01:51:59.465Z,7.87
2018-11-06T01:52:59.451Z,7.91
2018-11-06T01:53:59.536Z,7.92
2018-11-06T01:54:59.473Z,7.95
2018-11-06T01:55:59.489Z,7.92
2018-11-06T01:56:59.435Z,7.92
2018-11-06T01:57:59.496Z,7.81
2018-11-06T01:58:59.750Z,7.66
2018-11-06T01:59:59.532Z,7.77
2018-11-06T02:00:59.560Z,7.81
2018-11-06T02:01:59.472Z,7.85
2018-11-06T02:02:59.777Z,7.86
2018-11-06T02:03:59.478Z,7.86
2018-11-06T02:04:59.463Z,7.87
2018-11-06T02:05:59.592Z,7.81
2018-11-06T02:06:59.429Z,7.79
2018-11-06T02:07:59.448Z,7.79
2018-11-06T02:08:59.431Z,7.76
2018-11-06T02:09:59.390Z,7.76
2018-11-06T02:10:59.525Z,7.76
2018-11-06T02:11:59.409Z,7.75
2018-11-06T02:12:59.593Z,7.75
2018-11-06T02:13:59.384Z,7.74
2018-11-06T02:14:59.348Z,7.73
2018-11-06T02:15:59.445Z,7.72
2018-11-06T02:16:59.695Z,7.69
2018-11-06T02:17:59.478Z,7.7
2018-11-06T02:18:59.510Z,7.64
2018-11-06T02:19:59.512Z,7.6
2018-11-06T02:20:59.550Z,7.64
2018-11-06T02:21:59.453Z,7.62
2018-11-06T02:22:59.435Z,7.65
2018-11-06T02:23:59.469Z,7.65
2018-11-06T02:24:59.527Z,7.68
2018-11-06T02:25:59.373Z,7.69
2018-11-06T02:26:59.448Z,7.72
2018-11-06T02:27:59.395Z,7.73
2018-11-06T02:28:59.330Z,7.75
2018-11-06T02:29:59.381Z,7.75
2018-11-06T02:31:00.363Z,7.8
2018-11-06T02:31:59.540Z,7.81
2018-11-06T02:32:59.349Z,7.82
2018-11-06T02:33:59.319Z,7.78
2018-11-06T02:34:59.648Z,7.79
2018-11-06T02:35:59.439Z,7.78
2018-11-06T02:36:59.397Z,7.77
2018-11-06T02:37:59.334Z,7.75
2018-11-06T02:38:59.404Z,7.74
2018-11-06T02:39:59.547Z,7.73
2018-11-06T02:40:59.782Z,7.73
2018-11-06T02:41:59.420Z,7.78
2018-11-06T02:42:59.474Z,7.76
2018-11-06T02:43:59.453Z,7.79
2018-11-06T02:44:59.436Z,7.78
2018-11-06T02:45:59.332Z,7.76
2018-11-06T02:46:59.532Z,7.7
2018-11-06T02:47:59.455Z,7.62
2018-11-06T02:48:59.482Z,7.67
2018-11-06T02:49:59.466Z,7.71
2018-11-06T02:50:59.440Z,7.74
2018-11-06T02:51:59.559Z,7.74
2018-11-06T02:52:59.519Z,7.71
2018-11-06T02:53:59.793Z,7.72
2018-11-06T02:54:59.505Z,7.71
2018-11-06T02:56:00.759Z,7.7
2018-11-06T02:56:59.341Z,7.71
2018-11-06T02:57:59.407Z,7.65
2018-11-06T02:58:59.424Z,7.68
2018-11-06T02:59:59.485Z,7.65
2018-11-06T03:00:59.832Z,7.68
2018-11-06T03:01:59.437Z,7.67
2018-11-06T03:02:59.522Z,7.69
2018-11-06T03:03:59.342Z,7.67
2018-11-06T03:04:59.842Z,7.67
2018-11-06T03:05:59.402Z,7.68
2018-11-06T03:06:59.504Z,7.71
2018-11-06T03:07:59.327Z,7.55
2018-11-06T03:08:59.389Z,7.51
2018-11-06T03:09:59.494Z,7.56
2018-11-06T03:10:59.627Z,7.58
2018-11-06T03:11:59.387Z,7.64
2018-11-06T03:12:59.463Z,7.67
2018-11-06T03:13:59.356Z,7.68
2018-11-06T03:14:59.344Z,7.74
2018-11-06T03:15:59.450Z,7.74
2018-11-06T03:17:00.453Z,7.78
2018-11-06T03:17:59.357Z,7.78
2018-11-06T03:18:59.345Z,7.73
2018-11-06T03:19:59.331Z,7.69
2018-11-06T03:20:59.279Z,7.69
2018-11-06T03:21:59.294Z,7.66
2018-11-06T03:22:59.285Z,7.59
2018-11-06T03:24:00.910Z,7.56
2018-11-06T03:24:59.289Z,7.57
2018-11-06T03:25:59.409Z,7.55
2018-11-06T03:27:00.857Z,7.53
2018-11-06T03:27:59.319Z,7.55
2018-11-06T03:28:59.325Z,7.58
2018-11-06T03:29:59.338Z,7.48
2018-11-06T03:30:59.308Z,7.47
2018-11-06T03:31:59.343Z,7.5
2018-11-06T03:32:59.622Z,7.45
2018-11-06T03:33:59.637Z,7.4
2018-11-06T03:34:59.398Z,7.37
2018-11-06T03:35:59.692Z,7.33
2018-11-06T03:36:59.308Z,7.28
2018-11-06T03:37:59.337Z,7.2
2018-11-06T03:38:59.366Z,7.21
2018-11-06T03:39:59.347Z,7.27
2018-11-06T03:40:59.248Z,7.32
2018-11-06T03:41:59.261Z,7.32
2018-11-06T03:42:59.328Z,7.41
2018-11-06T03:43:59.412Z,7.44
2018-11-06T03:44:59.361Z,7.49
2018-11-06T03:45:59.753Z,7.51
2018-11-06T03:46:59.456Z,7.46
2018-11-06T03:47:59.257Z,7.36
2018-11-06T03:48:59.762Z,7.34
2018-11-06T03:49:59.382Z,7.38
2018-11-06T03:50:59.451Z,7.39
2018-11-06T03:51:59.614Z,7.45
2018-11-06T03:52:59.496Z,7.5
2018-11-06T03:53:59.362Z,7.51
2018-11-06T03:54:59.351Z,7.47
2018-11-06T03:55:59.451Z,7.5
2018-11-06T03:56:59.312Z,7.49
2018-11-06T03:58:00.126Z,7.49
2018-11-06T03:58:59.305Z,7.48
2018-11-06T04:00:00.426Z,7.52
2018-11-06T04:00:59.342Z,7.54
2018-11-06T04:01:59.231Z,7.55
2018-11-06T04:03:00.120Z,7.58
2018-11-06T04:03:59.407Z,7.57
2018-11-06T04:04:59.274Z,7.6
2018-11-06T04:05:59.262Z,7.6
2018-11-06T04:06:59.529Z,7.62
2018-11-06T04:07:59.383Z,7.55
2018-11-06T04:08:59.226Z,7.56
2018-11-06T04:09:59.223Z,7.59
2018-11-06T04:10:59.431Z,7.62
2018-11-06T04:11:59.365Z,7.62
2018-11-06T04:12:59.345Z,7.65
2018-11-06T04:13:59.252Z,7.68
2018-11-06T04:14:59.412Z,7.59
2018-11-06T04:15:59.292Z,7.6
2018-11-06T04:16:59.639Z,7.58
2018-11-06T04:17:59.336Z,7.54
2018-11-06T04:18:59.292Z,7.58
2018-11-06T04:20:00.418Z,7.6
2018-11-06T04:20:59.187Z,7.61
2018-11-06T04:21:59.375Z,7.62
2018-11-06T04:22:59.270Z,7.62
2018-11-06T04:23:59.310Z,7.66
2018-11-06T04:24:59.408Z,7.67
2018-11-06T04:25:59.345Z,7.67
2018-11-06T04:26:59.146Z,7.67
2018-11-06T04:27:59.307Z,7.68
2018-11-06T04:28:59.247Z,7.7
2018-11-06T04:29:59.373Z,7.7
2018-11-06T04:30:59.289Z,7.67
2018-11-06T04:31:59.123Z,7.66
2018-11-06T04:32:59.376Z,7.51
2018-11-06T04:33:59.413Z,7.5
2018-11-06T04:34:59.397Z,7.35
2018-11-06T04:35:59.213Z,7.24
2018-11-06T04:36:59.196Z,7.25
2018-11-06T04:37:59.249Z,7.29
2018-11-06T04:38:59.172Z,7.37
2018-11-06T04:39:59.366Z,7.4
2018-11-06T04:40:59.280Z,7.42
2018-11-06T04:41:59.245Z,7.44
2018-11-06T04:42:59.379Z,7.45
2018-11-06T04:43:59.300Z,7.43
2018-11-06T04:44:59.322Z,7.45
2018-11-06T04:45:59.284Z,7.47
2018-11-06T04:46:59.158Z,7.49
2018-11-06T04:47:59.167Z,7.54
2018-11-06T04:48:59.356Z,7.58
2018-11-06T04:49:59.418Z,7.6
2018-11-06T04:50:59.528Z,7.59
2018-11-06T04:51:59.124Z,7.55
2018-11-06T04:52:59.162Z,7.54
2018-11-06T04:53:59.350Z,7.57
2018-11-06T04:54:59.137Z,7.53
2018-11-06T04:55:59.162Z,7.54
2018-11-06T04:56:59.133Z,7.56
2018-11-06T04:57:59.104Z,7.58
2018-11-06T04:58:59.120Z,7.5
2018-11-06T04:59:59.178Z,7.53
2018-11-06T05:00:59.193Z,7.54
2018-11-06T05:01:59.540Z,7.54
2018-11-06T05:02:59.132Z,7.55
2018-11-06T05:03:59.162Z,7.57
2018-11-06T05:04:59.308Z,7.57
2018-11-06T05:05:59.098Z,7.59
2018-11-06T05:07:00.796Z,7.6
2018-11-06T05:07:59.075Z,7.61
2018-11-06T05:08:59.516Z,7.6
2018-11-06T05:09:59.284Z,7.64
2018-11-06T05:10:59.188Z,7.66
2018-11-06T05:11:59.205Z,7.66
2018-11-06T05:12:59.103Z,7.67
2018-11-06T05:13:59.432Z,7.67
2018-11-06T05:14:59.133Z,7.68
2018-11-06T05:15:59.305Z,7.68
2018-11-06T05:16:59.285Z,7.68
2018-11-06T05:17:59.261Z,7.71
2018-11-06T05:18:59.189Z,7.7
2018-11-06T05:19:59.263Z,7.73
2018-11-06T05:20:59.105Z,7.72
2018-11-06T05:21:59.433Z,7.72
2018-11-06T05:22:59.132Z,7.72
2018-11-06T05:23:59.301Z,7.71
2018-11-06T05:24:59.136Z,7.72
2018-11-06T05:25:59.248Z,7.73
2018-11-06T05:26:59.327Z,7.73
2018-11-06T05:27:59.633Z,7.73
2018-11-06T05:28:59.243Z,7.73
2018-11-06T05:29:59.217Z,7.73
2018-11-06T05:30:59.168Z,7.72
2018-11-06T05:31:59.286Z,7.72
2018-11-06T05:33:00.395Z,7.7
2018-11-06T05:33:59.111Z,7.73
2018-11-06T05:35:00.484Z,7.69
2018-11-06T05:35:59.156Z,7.66
2018-11-06T05:36:59.157Z,7.62
2018-11-06T05:37:59.182Z,7.62
2018-11-06T05:39:00.069Z,7.61
2018-11-06T05:39:59.169Z,7.62
2018-11-06T05:40:59.159Z,7.61
2018-11-06T05:41:59.187Z,7.59
2018-11-06T05:42:59.110Z,7.57
2018-11-06T05:43:59.871Z,7.53
2018-11-06T05:44:59.142Z,7.54
2018-11-06T05:45:59.129Z,7.54
2018-11-06T05:46:59.238Z,7.57
2018-11-06T05:47:59.127Z,7.49
2018-11-06T05:48:59.021Z,7.47
2018-11-06T05:49:59.241Z,7.48
2018-11-06T05:50:59.141Z,7.48
2018-11-06T05:51:59.098Z,7.5
2018-11-06T05:52:59.495Z,7.46
2018-11-06T05:53:59.245Z,7.44
2018-11-06T05:54:59.037Z,7.45
2018-11-06T05:55:59.215Z,7.4
2018-11-06T05:56:59.008Z,7.28
2018-11-06T05:57:59.355Z,7.28
2018-11-06T05:58:59.157Z,7.22
2018-11-06T05:59:59.016Z,7.2
2018-11-06T06:00:59.322Z,7.19
2018-11-06T06:01:59.092Z,7.13
2018-11-06T06:02:59.078Z,7.16
2018-11-06T06:03:59.041Z,7.24
2018-11-06T06:04:59.144Z,7.16
2018-11-06T06:05:59.297Z,7.2
2018-11-06T06:06:58.986Z,7.16
2018-11-06T06:07:58.985Z,7.17
2018-11-06T06:08:59.332Z,7.22
2018-11-06T06:09:59.189Z,7.29
2018-11-06T06:10:59.923Z,7.35
2018-11-06T06:11:59.009Z,7.35
2018-11-06T06:12:59.043Z,7.31
2018-11-06T06:13:59.233Z,7.19
2018-11-06T06:14:58.975Z,7.21
2018-11-06T06:15:58.965Z,7.21
2018-11-06T06:16:59.514Z,7.21
2018-11-06T06:17:59.169Z,7.26
2018-11-06T06:18:59.161Z,7.12
2018-11-06T06:19:59.167Z,6.95
2018-11-06T06:20:59.075Z,6.84
2018-11-06T06:21:59.156Z,6.97
2018-11-06T06:22:59.214Z,6.97
2018-11-06T06:23:59.723Z,7.04
2018-11-06T06:24:58.961Z,7.06
2018-11-06T06:25:58.999Z,6.94
2018-11-06T06:26:58.965Z,6.96
2018-11-06T06:27:59.089Z,6.95
2018-11-06T06:28:59.036Z,6.97
2018-11-06T06:29:59.143Z,6.98
2018-11-06T06:30:59.116Z,6.93
2018-11-06T06:31:58.985Z,6.95
2018-11-06T06:32:58.944Z,6.99
2018-11-06T06:33:59.328Z,7.03
2018-11-06T06:34:59.665Z,7.09
2018-11-06T06:35:59.111Z,7.12
2018-11-06T06:36:58.982Z,7.21
2018-11-06T06:37:59.071Z,7.17
2018-11-06T06:38:59.204Z,7.14
2018-11-06T06:39:59.517Z,7.17
2018-11-06T06:41:00.099Z,7.16
2018-11-06T06:41:58.935Z,7.14
2018-11-06T06:42:58.944Z,7.12
2018-11-06T06:43:59.005Z,7.15
2018-11-06T06:44:58.954Z,7.21
2018-11-06T06:45:59.350Z,7.24
2018-11-06T06:46:58.996Z,7.05
2018-11-06T06:47:59.171Z,7.05
2018-11-06T06:48:58.923Z,7.03
2018-11-06T06:49:59.090Z,6.95
2018-11-06T06:50:58.974Z,6.83
2018-11-06T06:51:59.187Z,6.86
2018-11-06T06:52:58.999Z,6.83
2018-11-06T06:53:59.801Z,6.74
2018-11-06T06:54:59.905Z,6.77
2018-11-06T06:55:59.153Z,6.74
2018-11-06T06:56:59.107Z,6.75
2018-11-06T06:57:59.226Z,6.8
2018-11-06T06:58:58.952Z,6.85
2018-11-06T06:59:58.957Z,6.9
2018-11-06T07:00:59.357Z,6.97
2018-11-06T07:01:59.273Z,6.98
2018-11-06T07:02:58.964Z,6.9
2018-11-06T07:03:58.998Z,6.88
2018-11-06T07:04:58.954Z,6.86
2018-11-06T07:05:58.915Z,6.82
2018-11-06T07:06:58.948Z,6.81
2018-11-06T07:07:58.911Z,6.77
2018-11-06T07:08:58.907Z,6.82
2018-11-06T07:09:59.087Z,6.85
2018-11-06T07:10:58.924Z,6.9
2018-11-06T07:11:58.889Z,6.84
2018-11-06T07:13:00.699Z,6.9
2018-11-06T07:13:58.978Z,6.9
2018-11-06T07:14:58.905Z,6.92
2018-11-06T07:15:59.084Z,6.96
2018-11-06T07:16:58.923Z,6.94
2018-11-06T07:17:58.944Z,6.94
2018-11-06T07:18:59.069Z,6.98
2018-11-06T07:19:59.087Z,6.97
2018-11-06T07:20:58.905Z,6.98
2018-11-06T07:21:58.920Z,7.04
2018-11-06T07:22:58.975Z,7.05
2018-11-06T07:23:58.875Z,7.03
2018-11-06T07:24:58.948Z,7.04
2018-11-06T07:25:58.893Z,7.07
2018-11-06T07:26:58.963Z,7.1
2018-11-06T07:27:58.963Z,7.09
2018-11-06T07:29:00.672Z,7.13
2018-11-06T07:29:59.189Z,7.14
2018-11-06T07:30:59.040Z,7.14
2018-11-06T07:31:58.953Z,7.15
2018-11-06T07:32:58.902Z,7.18
2018-11-06T07:33:58.890Z,7.24
2018-11-06T07:35:01.991Z,7.13
2018-11-06T07:35:59.771Z,7.08
2018-11-06T07:36:58.902Z,7.08
2018-11-06T07:37:59.232Z,6.98
2018-11-06T07:38:58.906Z,7
2018-11-06T07:39:59.075Z,7
2018-11-06T07:40:59.897Z,7.03
2018-11-06T07:41:58.938Z,7.06
2018-11-06T07:42:58.950Z,7.08
2018-11-06T07:43:58.937Z,7.1
2018-11-06T07:44:59.142Z,7.18
2018-11-06T07:45:58.989Z,7.19
2018-11-06T07:46:58.861Z,7.12
2018-11-06T07:47:58.948Z,7.1
2018-11-06T07:48:59.395Z,7.06
2018-11-06T07:50:00.143Z,7.09
2018-11-06T07:50:58.831Z,7.13
2018-11-06T07:51:58.810Z,7.17
2018-11-06T07:52:59.269Z,7.21
2018-11-06T07:53:59.203Z,7.16
2018-11-06T07:54:59.299Z,7.12
2018-11-06T07:55:59.518Z,7.14
2018-11-06T07:56:58.956Z,7.11
2018-11-06T07:57:59.256Z,7.06
2018-11-06T07:58:58.797Z,7.07
2018-11-06T07:59:59.253Z,7.1
2018-11-06T08:00:58.994Z,7.12
2018-11-06T08:01:58.880Z,7
2018-11-06T08:02:58.852Z,6.86
2018-11-06T08:03:59.213Z,6.83
2018-11-06T08:04:58.801Z,6.88
2018-11-06T08:05:58.948Z,6.91
2018-11-06T08:06:58.891Z,6.98
2018-11-06T08:07:59.392Z,6.99
2018-11-06T08:08:59.119Z,6.94
2018-11-06T08:09:58.919Z,6.98
2018-11-06T08:10:58.821Z,6.92
2018-11-06T08:11:58.811Z,6.96
2018-11-06T08:12:58.866Z,6.94
2018-11-06T08:13:58.824Z,6.94
2018-11-06T08:14:59.806Z,6.96
2018-11-06T08:15:58.846Z,7
2018-11-06T08:16:58.816Z,6.99
2018-11-06T08:17:59.587Z,7
2018-11-06T08:18:58.856Z,6.97
2018-11-06T08:19:58.842Z,7
2018-11-06T08:20:58.838Z,7.03
2018-11-06T08:21:58.810Z,7.03
2018-11-06T08:22:58.847Z,7.04
2018-11-06T08:23:59.433Z,7.06
2018-11-06T08:24:58.786Z,7.06
2018-11-06T08:25:59.122Z,7.08
2018-11-06T08:26:58.837Z,7.11
2018-11-06T08:27:58.908Z,7.13
2018-11-06T08:28:59.023Z,7.1
2018-11-06T08:29:59.136Z,7.1
2018-11-06T08:31:02.877Z,7.09
2018-11-06T08:32:04.558Z,7.1
2018-11-06T08:32:58.866Z,7.06
2018-11-06T08:33:58.937Z,7.03
2018-11-06T08:34:58.837Z,6.99
2018-11-06T08:35:58.768Z,7.01
2018-11-06T08:36:59.853Z,6.97
2018-11-06T08:37:58.807Z,6.99
2018-11-06T08:38:58.757Z,7
2018-11-06T08:39:58.832Z,7.03
2018-11-06T08:40:58.998Z,7.03
2018-11-06T08:41:58.832Z,7.04
2018-11-06T08:42:58.756Z,7.05
2018-11-06T08:43:58.774Z,7.04
2018-11-06T08:44:58.924Z,7.02
2018-11-06T08:45:58.981Z,7.05
2018-11-06T08:46:58.763Z,7
2018-11-06T08:47:59.777Z,7.01
2018-11-06T08:48:58.753Z,7.02
2018-11-06T08:49:58.816Z,7.03
2018-11-06T08:50:58.828Z,7.03
2018-11-06T08:51:58.801Z,7.03
2018-11-06T08:52:58.935Z,7.04
2018-11-06T08:53:58.794Z,7.05
2018-11-06T08:54:58.896Z,7.06
2018-11-06T08:55:58.809Z,7.05
2018-11-06T08:56:58.833Z,7.06
2018-11-06T08:57:58.782Z,7.05
2018-11-06T08:58:58.800Z,7.08
2018-11-06T08:59:58.942Z,7.05
2018-11-06T09:00:58.809Z,7.07
2018-11-06T09:01:58.774Z,7.04
2018-11-06T09:02:58.823Z,7.03
2018-11-06T09:03:58.964Z,7.01
2018-11-06T09:04:58.891Z,7
2018-11-06T09:05:58.854Z,6.98
2018-11-06T09:06:58.980Z,6.98
2018-11-06T09:07:58.852Z,7
2018-11-06T09:09:00.144Z,7.04
2018-11-06T09:09:59.026Z,7.01
2018-11-06T09:10:59.113Z,6.97
2018-11-06T09:11:59.123Z,6.9
2018-11-06T09:12:58.738Z,6.83
2018-11-06T09:13:58.930Z,6.86
2018-11-06T09:14:58.719Z,6.9
2018-11-06T09:15:58.793Z,6.92
2018-11-06T09:16:59.471Z,6.95
2018-11-06T09:17:58.984Z,6.96
2018-11-06T09:18:58.781Z,6.96
2018-11-06T09:19:58.706Z,6.92
2018-11-06T09:20:59.165Z,6.82
2018-11-06T09:21:58.805Z,6.8
2018-11-06T09:22:59.006Z,6.83
2018-11-06T09:23:58.695Z,6.84
2018-11-06T09:24:58.726Z,6.79
2018-11-06T09:25:58.765Z,6.77
2018-11-06T09:26:58.854Z,6.72
2018-11-06T09:27:58.970Z,6.75
2018-11-06T09:28:58.796Z,6.8
2018-11-06T09:29:58.808Z,6.82
2018-11-06T09:31:00.136Z,6.82
2018-11-06T09:31:59.087Z,6.9
2018-11-06T09:32:58.969Z,6.93
2018-11-06T09:33:58.823Z,6.92
2018-11-06T09:34:59.247Z,6.91
2018-11-06T09:35:58.852Z,6.93
2018-11-06T09:36:58.742Z,6.98
2018-11-06T09:37:58.683Z,6.98
2018-11-06T09:38:59.110Z,6.99
2018-11-06T09:39:58.704Z,6.96
2018-11-06T09:40:58.691Z,6.98
2018-11-06T09:41:58.683Z,6.99
2018-11-06T09:42:58.927Z,7
2018-11-06T09:43:58.709Z,6.96
2018-11-06T09:44:59.265Z,6.98
2018-11-06T09:45:59.008Z,6.98
2018-11-06T09:46:58.669Z,6.98
2018-11-06T09:47:58.631Z,7
2018-11-06T09:48:58.659Z,7.02
2018-11-06T09:49:58.678Z,6.98
2018-11-06T09:50:58.663Z,6.99
2018-11-06T09:51:59.397Z,6.98
2018-11-06T09:52:58.683Z,6.97
2018-11-06T09:53:58.689Z,7.02
2018-11-06T09:54:58.659Z,7.03
2018-11-06T09:55:58.639Z,7.04
2018-11-06T09:56:59.035Z,7.03
2018-11-06T09:57:58.739Z,7.08
2018-11-06T09:58:58.675Z,7.1
2018-11-06T09:59:59.000Z,7.07
2018-11-06T10:00:59.501Z,7.03
2018-11-06T10:01:58.717Z,7
2018-11-06T10:02:58.700Z,7
2018-11-06T10:03:58.951Z,7.02
2018-11-06T10:04:58.708Z,7.04
2018-11-06T10:05:59.341Z,7.01
2018-11-06T10:07:02.524Z,7.09
2018-11-06T10:07:58.921Z,7.11
2018-11-06T10:08:58.709Z,7.16
2018-11-06T10:09:58.648Z,7.19
2018-11-06T10:10:58.673Z,7.22
2018-11-06T10:11:58.857Z,7.18
2018-11-06T10:12:58.788Z,7.1
2018-11-06T10:13:58.668Z,7.06
2018-11-06T10:14:58.818Z,7.09
2018-11-06T10:15:58.613Z,7.09
2018-11-06T10:16:58.843Z,7.16
2018-11-06T10:17:58.669Z,7.24
2018-11-06T10:18:58.694Z,7.32
2018-11-06T10:19:58.956Z,7.33
2018-11-06T10:20:58.814Z,7.38
2018-11-06T10:21:58.764Z,7.41
2018-11-06T10:22:58.673Z,7.45
2018-11-06T10:23:59.064Z,7.49
2018-11-06T10:24:58.790Z,7.5
2018-11-06T10:25:58.835Z,7.41
2018-11-06T10:26:58.774Z,7.31
2018-11-06T10:27:58.619Z,7.29
2018-11-06T10:28:58.698Z,7.25
2018-11-06T10:29:58.647Z,7.19
2018-11-06T10:30:59.056Z,7.28
2018-11-06T10:31:58.668Z,7.23
2018-11-06T10:32:58.676Z,7.29
2018-11-06T10:33:58.659Z,7.33
2018-11-06T10:34:58.628Z,7.32
2018-11-06T10:35:58.713Z,7.42
2018-11-06T10:36:58.857Z,7.41
2018-11-06T10:37:58.991Z,7.45
2018-11-06T10:38:58.861Z,7.43
2018-11-06T10:39:58.832Z,7.45
2018-11-06T10:40:58.729Z,7.33
2018-11-06T10:41:58.637Z,7.39
2018-11-06T10:42:58.773Z,7.42
2018-11-06T10:43:58.616Z,7.47
2018-11-06T10:44:58.802Z,7.47
2018-11-06T10:45:58.651Z,7.47
2018-11-06T10:46:58.608Z,7.49
2018-11-06T10:47:58.576Z,7.56
2018-11-06T10:48:58.897Z,7.66
2018-11-06T10:49:58.628Z,7.7
2018-11-06T10:50:58.643Z,7.71
2018-11-06T10:51:58.758Z,7.7
2018-11-06T10:52:58.570Z,7.72
2018-11-06T10:53:58.665Z,7.7
2018-11-06T10:54:58.660Z,7.54
2018-11-06T10:55:58.728Z,7.56
2018-11-06T10:56:58.598Z,7.63
2018-11-06T10:57:59.103Z,7.56
2018-11-06T10:58:58.697Z,7.55
2018-11-06T10:59:58.607Z,7.56
2018-11-06T11:00:58.689Z,7.6
2018-11-06T11:01:58.612Z,7.62
2018-11-06T11:02:58.575Z,7.6
2018-11-06T11:03:59.038Z,7.61
2018-11-06T11:04:59.402Z,7.63
2018-11-06T11:05:58.658Z,7.65
2018-11-06T11:06:58.810Z,7.64
2018-11-06T11:07:58.570Z,7.67
2018-11-06T11:08:58.745Z,7.63
2018-11-06T11:09:58.691Z,7.61
2018-11-06T11:10:58.549Z,7.52
2018-11-06T11:11:58.636Z,7.57
2018-11-06T11:12:58.644Z,7.58
2018-11-06T11:13:58.563Z,7.51
2018-11-06T11:14:58.652Z,7.52
2018-11-06T11:15:58.601Z,7.52
2018-11-06T11:16:58.556Z,7.54
2018-11-06T11:17:58.581Z,7.54
2018-11-06T11:18:58.551Z,7.67
2018-11-06T11:19:58.923Z,7.61
2018-11-06T11:20:58.575Z,7.59
2018-11-06T11:21:58.569Z,7.55
2018-11-06T11:22:58.704Z,7.51
2018-11-06T11:23:58.561Z,7.54
2018-11-06T11:25:00.803Z,7.57
2018-11-06T11:25:58.564Z,7.6
2018-11-06T11:26:58.579Z,7.65
2018-11-06T11:27:58.623Z,7.67
2018-11-06T11:28:58.604Z,7.68
2018-11-06T11:29:58.655Z,7.66
2018-11-06T11:30:58.567Z,7.73
2018-11-06T11:31:59.504Z,7.72
2018-11-06T11:32:58.878Z,7.78
2018-11-06T11:33:58.798Z,7.73
2018-11-06T11:34:58.603Z,7.77
2018-11-06T11:35:58.536Z,7.78
2018-11-06T11:36:58.642Z,7.83
2018-11-06T11:37:58.608Z,7.78
2018-11-06T11:38:59.440Z,7.76
2018-11-06T11:39:58.526Z,7.77
2018-11-06T11:40:58.585Z,7.75
2018-11-06T11:41:58.526Z,7.85
2018-11-06T11:42:58.817Z,7.81
2018-11-06T11:43:58.618Z,7.86
2018-11-06T11:44:58.613Z,7.85
2018-11-06T11:46:00.083Z,7.89
2018-11-06T11:46:58.673Z,7.91
2018-11-06T11:47:58.955Z,7.93
2018-11-06T11:48:58.555Z,7.97
2018-11-06T11:49:58.664Z,8.04
2018-11-06T11:50:58.616Z,8.06
2018-11-06T11:51:58.600Z,8.08
2018-11-06T11:52:58.541Z,8.1
2018-11-06T11:53:58.570Z,8.14
2018-11-06T11:54:58.633Z,8.17
2018-11-06T11:55:58.619Z,8.21
2018-11-06T11:56:58.535Z,8.19
2018-11-06T11:57:58.495Z,8.18
2018-11-06T11:58:58.564Z,8.24
2018-11-06T11:59:59.209Z,8.19
2018-11-06T12:00:58.753Z,8.27
2018-11-06T12:01:58.809Z,8.26
2018-11-06T12:02:58.487Z,8.28
2018-11-06T12:03:58.915Z,8.27
2018-11-06T12:04:58.666Z,8.29
2018-11-06T12:05:58.646Z,8.25
2018-11-06T12:06:58.598Z,8.23
2018-11-06T12:07:58.536Z,8.27
2018-11-06T12:08:58.542Z,8.29
2018-11-06T12:09:58.584Z,8.25
2018-11-06T12:10:58.536Z,8.2
2018-11-06T12:11:58.533Z,8.25
2018-11-06T12:12:58.503Z,8.2
2018-11-06T12:13:58.517Z,8.24
2018-11-06T12:14:58.706Z,8.22
2018-11-06T12:15:58.707Z,8.21
2018-11-06T12:16:58.533Z,8.25
2018-11-06T12:17:58.749Z,8.19
2018-11-06T12:18:58.492Z,8.22
2018-11-06T12:19:58.653Z,8.25
2018-11-06T12:20:58.739Z,8.27
2018-11-06T12:21:58.670Z,8.33
2018-11-06T12:22:58.593Z,8.4
2018-11-06T12:23:59.032Z,8.45
2018-11-06T12:25:01.870Z,8.41
2018-11-06T12:25:58.614Z,8.29
2018-11-06T12:26:59.778Z,8.28
2018-11-06T12:27:58.456Z,8.27
2018-11-06T12:28:58.509Z,8.29
2018-11-06T12:29:58.879Z,8.25
2018-11-06T12:30:58.441Z,8.23
2018-11-06T12:31:58.639Z,8.25
2018-11-06T12:32:58.576Z,8.27
2018-11-06T12:33:58.860Z,8.28
2018-11-06T12:34:58.503Z,8.33
2018-11-06T12:35:58.720Z,8.4
2018-11-06T12:36:59.788Z,8.47
2018-11-06T12:37:58.489Z,8.55
2018-11-06T12:38:58.496Z,8.47
2018-11-06T12:39:58.493Z,8.52
2018-11-06T12:40:58.579Z,8.57
2018-11-06T12:41:58.484Z,8.59
2018-11-06T12:42:59.296Z,8.58
2018-11-06T12:43:58.491Z,8.59
2018-11-06T12:44:58.453Z,8.56
2018-11-06T12:45:58.473Z,8.57
2018-11-06T12:46:58.407Z,8.52
2018-11-06T12:47:58.457Z,8.54
2018-11-06T12:48:58.476Z,8.59
2018-11-06T12:49:58.435Z,8.6
2018-11-06T12:50:58.546Z,8.58
2018-11-06T12:51:58.436Z,8.63
2018-11-06T12:52:58.507Z,8.69
2018-11-06T12:53:58.684Z,8.63
2018-11-06T12:54:58.422Z,8.66
2018-11-06T12:55:58.921Z,8.72
2018-11-06T12:56:58.446Z,8.74
2018-11-06T12:57:58.491Z,8.77
2018-11-06T12:58:58.773Z,8.77
2018-11-06T12:59:58.448Z,8.79
2018-11-06T13:00:58.406Z,8.84
2018-11-06T13:01:58.513Z,8.91
2018-11-06T13:02:58.448Z,8.88
2018-11-06T13:03:58.555Z,8.86
2018-11-06T13:04:58.413Z,8.92
2018-11-06T13:05:58.434Z,8.94
2018-11-06T13:06:58.505Z,9.01
2018-11-06T13:08:14.338Z,9
2018-11-06T13:08:58.529Z,9
2018-11-06T13:09:59.263Z,8.99
2018-11-06T13:10:58.459Z,9.03
2018-11-06T13:11:58.411Z,9.06
2018-11-06T13:12:58.421Z,9.07
2018-11-06T13:13:58.526Z,9.09
2018-11-06T13:14:59.745Z,9.1
2018-11-06T13:15:59.422Z,9.09
2018-11-06T13:16:59.051Z,9.13
2018-11-06T13:17:58.574Z,9.14
2018-11-06T13:18:58.618Z,9.16
2018-11-06T13:19:58.418Z,9.2
2018-11-06T13:20:58.469Z,9.21
2018-11-06T13:21:58.508Z,9.25
2018-11-06T13:22:58.516Z,9.18